createdAt,value
2023-03-02T14:42:43.575Z,4.10
2023-03-02T14:44:15.577Z,5.30
2023-03-02T14:45:47.596Z,5.00
2023-03-02T14:47:19.912Z,4.63
2023-03-02T14:48:51.650Z,4.90
2023-03-02T14:50:23.755Z,4.63
2023-03-02T14:57:59.695Z,4.60
2023-03-02T14:59:31.526Z,4.50
2023-03-02T15:01:04.275Z,4.70
2023-03-02T15:02:36.388Z,4.77
2023-03-02T15:06:33.986Z,4.40
2023-03-02T15:08:05.938Z,5.00
2023-03-02T15:09:37.725Z,5.20
2023-03-02T15:11:09.443Z,4.67
2023-03-02T15:12:41.121Z,4.60
2023-03-02T15:14:12.864Z,5.00
2023-03-02T15:15:45.541Z,5.03
2023-03-02T15:17:17.258Z,4.33
2023-03-02T15:18:50.206Z,5.00
2023-03-02T15:20:22.041Z,5.03
2023-03-02T15:21:53.727Z,5.40
2023-03-02T15:23:25.431Z,6.00
2023-03-02T15:24:57.317Z,4.90
2023-03-02T15:26:29.004Z,5.30
2023-03-02T15:28:02.027Z,5.27
2023-03-02T15:29:34.059Z,5.83
2023-03-02T15:31:09.853Z,4.90
2023-03-02T15:32:41.628Z,5.53
2023-03-02T15:34:13.818Z,5.67
2023-03-02T15:35:45.793Z,5.17
2023-03-02T15:37:17.650Z,4.70
2023-03-02T15:38:52.835Z,5.50
2023-03-02T15:40:25.618Z,5.30
2023-03-02T15:41:57.355Z,4.77
2023-03-02T15:43:29.038Z,5.30
2023-03-02T15:45:00.724Z,5.40
2023-03-02T15:46:32.468Z,4.40
2023-03-02T15:48:04.540Z,4.53
2023-03-02T15:49:36.359Z,4.70
2023-03-02T15:51:08.527Z,4.37
2023-03-02T15:52:41.438Z,4.60
2023-03-02T15:54:13.425Z,4.57
2023-03-02T15:55:45.669Z,4.90
2023-03-02T15:57:17.578Z,4.63
2023-03-02T15:58:49.803Z,4.03
2023-03-02T16:00:21.757Z,4.90
2023-03-02T16:01:54.313Z,4.60
2023-03-02T16:03:26.481Z,5.90
2023-03-02T16:04:58.170Z,5.30
2023-03-02T16:06:30.664Z,6.93
2023-03-02T16:08:02.342Z,9.73
2023-03-02T16:09:34.116Z,9.80
2023-03-02T16:11:07.208Z,9.40
2023-03-02T16:12:38.967Z,10.53
2023-03-02T16:14:13.115Z,8.23
2023-03-02T16:15:44.783Z,6.83
2023-03-02T16:17:18.562Z,6.20
2023-03-02T16:18:55.103Z,5.87
2023-03-02T16:20:26.767Z,5.60
2023-03-02T16:21:58.498Z,5.53
2023-03-02T16:23:30.184Z,4.77
2023-03-02T16:25:01.868Z,4.83
2023-03-02T16:26:35.663Z,5.50
2023-03-02T16:28:07.604Z,5.43
2023-03-02T16:41:11.717Z,7.23
2023-03-02T16:42:43.460Z,7.33
2023-03-02T16:44:15.963Z,7.60
2023-03-02T16:45:49.354Z,8.47
2023-03-02T16:47:21.023Z,7.80
2023-03-02T16:48:53.524Z,8.00
2023-03-02T16:50:25.234Z,7.90
2023-03-02T16:51:59.894Z,7.77
2023-03-02T16:53:31.663Z,7.73
2023-03-02T16:55:04.199Z,8.60
2023-03-02T16:56:36.225Z,8.10
2023-03-02T16:58:07.908Z,7.80
2023-03-02T16:59:39.936Z,8.00
2023-03-02T17:01:14.651Z,8.80
2023-03-02T17:02:46.416Z,8.20
2023-03-02T17:04:18.334Z,8.80
2023-03-02T17:05:50.071Z,8.87
2023-03-02T17:07:21.804Z,8.20
2023-03-02T17:08:53.649Z,8.83
2023-03-02T17:10:25.487Z,8.70
2023-03-02T17:11:57.395Z,8.53
2023-03-02T17:13:29.152Z,8.33
2023-03-02T17:15:00.891Z,8.63
2023-03-02T17:16:32.604Z,7.90
2023-03-02T17:18:04.391Z,9.10
2023-03-02T17:19:36.194Z,8.43
2023-03-02T17:21:08.455Z,8.60
2023-03-02T17:22:40.356Z,8.57
2023-03-02T17:24:12.737Z,8.30
2023-03-02T17:25:44.464Z,8.70
2023-03-02T17:27:25.063Z,8.53
2023-03-02T17:28:57.416Z,8.70
2023-03-02T17:30:29.177Z,9.87
2023-03-02T17:32:00.932Z,9.67
2023-03-02T17:33:33.903Z,10.20
2023-03-02T17:35:07.584Z,9.20
2023-03-02T17:36:39.321Z,9.50
2023-03-02T17:38:11.441Z,9.00
2023-03-02T17:39:43.313Z,9.07
2023-03-02T17:41:15.041Z,8.63
2023-03-02T17:42:46.907Z,9.40
2023-03-02T17:44:18.596Z,9.57
2023-03-02T17:45:50.334Z,10.00
2023-03-02T17:47:22.102Z,9.53
2023-03-02T17:48:56.746Z,9.30
2023-03-02T17:50:31.660Z,9.20
2023-03-02T17:52:03.509Z,8.97
2023-03-02T17:53:35.261Z,8.43
2023-03-02T17:55:07.969Z,9.10
2023-03-02T17:56:39.702Z,9.53
2023-03-02T17:58:11.507Z,9.73
2023-03-02T17:59:43.333Z,9.47
2023-03-02T18:01:15.716Z,9.80
2023-03-02T18:02:48.009Z,9.83
2023-03-02T18:04:19.712Z,9.40
2023-03-02T18:05:51.443Z,8.90
2023-03-02T18:07:23.165Z,9.50
2023-03-02T18:08:54.884Z,9.47
2023-03-02T18:10:26.593Z,9.13
2023-03-02T18:11:58.253Z,10.10
2023-03-02T18:13:30.469Z,9.47
2023-03-02T18:15:02.277Z,9.73
2023-03-02T18:16:35.404Z,9.90
2023-03-02T18:18:07.363Z,9.53
2023-03-02T18:19:39.149Z,10.60
2023-03-02T18:21:10.877Z,10.30
2023-03-02T18:22:42.571Z,10.60
2023-03-02T18:24:14.470Z,10.93
2023-03-02T18:25:46.143Z,10.93
2023-03-02T18:27:20.721Z,9.80
2023-03-02T18:28:52.576Z,10.93
2023-03-02T18:30:24.329Z,10.77
2023-03-02T18:31:56.143Z,9.97
2023-03-02T18:33:28.273Z,11.30
2023-03-02T18:35:00.044Z,10.43
2023-03-02T18:36:31.762Z,10.10
2023-03-02T18:38:03.665Z,9.97
2023-03-02T18:39:37.660Z,10.37
2023-03-02T18:41:11.482Z,11.13
2023-03-02T18:42:43.225Z,10.57
2023-03-02T18:44:14.937Z,9.60
2023-03-02T18:45:46.593Z,11.00
2023-03-02T18:47:18.458Z,11.37
2023-03-02T18:48:51.409Z,10.80
2023-03-02T18:50:23.932Z,10.30
2023-03-02T18:51:56.565Z,10.90
2023-03-02T18:53:28.299Z,11.00
2023-03-02T18:55:00.033Z,9.90
2023-03-02T18:56:31.799Z,10.87
2023-03-02T18:58:04.169Z,9.03
2023-03-02T18:59:36.455Z,9.87
2023-03-02T19:01:08.644Z,10.80
2023-03-02T19:02:40.401Z,9.87
2023-03-02T19:04:13.225Z,9.90
2023-03-02T19:05:45.203Z,10.10
2023-03-02T19:07:17.104Z,9.40
2023-03-02T19:08:49.360Z,9.70
2023-03-02T19:10:21.597Z,9.30
2023-03-02T19:11:53.714Z,8.73
2023-03-02T19:13:25.388Z,9.50
2023-03-02T19:14:57.172Z,9.97
2023-03-02T19:16:29.083Z,8.70
2023-03-02T19:18:01.061Z,10.00
2023-03-02T19:19:33.134Z,10.07
2023-03-02T19:21:05.418Z,10.10
2023-03-02T19:22:37.076Z,10.23
2023-03-02T19:24:09.172Z,10.60
2023-03-02T19:25:41.388Z,9.73
2023-03-02T19:27:13.753Z,9.47
2023-03-02T19:28:45.717Z,10.17
2023-03-02T19:30:23.017Z,9.50
2023-03-02T19:31:55.637Z,9.53
2023-03-02T19:33:27.443Z,10.03
2023-03-02T19:34:59.889Z,10.40
2023-03-02T19:36:31.616Z,10.50
2023-03-02T19:38:03.881Z,9.53
2023-03-02T19:39:35.561Z,10.07
2023-03-02T19:41:09.186Z,9.97
2023-03-02T19:42:41.389Z,9.80
2023-03-02T19:44:13.120Z,10.20
2023-03-02T19:45:44.908Z,10.07
2023-03-02T19:47:16.647Z,10.20
2023-03-02T19:48:48.641Z,10.83
2023-03-02T19:50:21.475Z,10.53
2023-03-02T19:51:53.191Z,10.70
2023-03-02T19:53:24.896Z,10.47
2023-03-02T19:54:56.953Z,10.57
2023-03-02T19:56:32.864Z,11.23
2023-03-02T19:58:05.280Z,11.23
2023-03-02T19:59:39.723Z,12.20
2023-03-02T20:01:11.529Z,11.17
2023-03-02T20:02:44.727Z,11.00
2023-03-02T20:04:16.420Z,11.90
2023-03-02T20:05:48.120Z,12.53
2023-03-02T20:07:19.815Z,13.40
2023-03-02T20:08:51.691Z,11.00
2023-03-02T20:10:28.358Z,13.23
2023-03-02T20:12:02.414Z,12.33
2023-03-02T20:13:35.638Z,12.60
2023-03-02T20:15:07.718Z,13.03
2023-03-02T20:16:39.857Z,11.70
2023-03-02T20:18:18.677Z,12.97
2023-03-02T20:19:51.567Z,12.10
2023-03-02T20:21:25.780Z,12.40
2023-03-02T20:22:59.414Z,11.97
2023-03-02T20:24:31.190Z,12.03
2023-03-02T20:26:04.435Z,12.73
2023-03-02T20:27:36.147Z,12.50
2023-03-02T20:29:09.548Z,12.90
2023-03-02T20:30:49.685Z,13.07
2023-03-02T20:32:21.535Z,13.07
2023-03-02T20:33:54.929Z,12.97
2023-03-02T20:35:29.499Z,12.40
2023-03-02T20:37:03.227Z,13.70
2023-03-02T20:38:40.065Z,11.37
2023-03-02T20:40:12.220Z,12.43
2023-03-02T20:41:44.291Z,12.40
2023-03-02T20:43:17.109Z,13.77
2023-03-02T20:44:48.995Z,12.90
2023-03-02T20:46:27.943Z,13.07
2023-03-02T20:47:59.671Z,12.93
2023-03-02T20:49:31.604Z,12.80
2023-03-02T20:51:04.023Z,12.97
2023-03-02T20:52:36.894Z,12.30
2023-03-02T20:54:09.050Z,13.00
2023-03-02T20:55:41.062Z,12.07
2023-03-02T20:57:16.890Z,13.03
2023-03-02T20:58:48.863Z,12.40
2023-03-02T21:00:25.758Z,13.30
2023-03-02T21:01:57.942Z,13.27
2023-03-02T21:03:29.692Z,13.93
2023-03-02T21:05:01.602Z,13.33
2023-03-02T21:06:34.476Z,13.50
2023-03-02T21:08:07.105Z,13.53
2023-03-02T21:09:39.474Z,12.63
2023-03-02T21:11:17.286Z,12.67
2023-03-02T21:12:50.293Z,13.30
2023-03-02T21:14:22.268Z,13.87
2023-03-02T21:15:54.020Z,13.43
2023-03-02T21:17:26.337Z,14.30
2023-03-02T21:18:58.817Z,14.40
2023-03-02T21:20:32.905Z,14.63
2023-03-02T21:22:07.996Z,13.67
2023-03-02T21:23:41.544Z,13.93
2023-03-02T21:25:13.477Z,14.63
2023-03-02T21:26:47.217Z,14.30
2023-03-02T21:28:19.245Z,14.30
2023-03-02T21:29:50.968Z,17.23
2023-03-02T21:31:22.990Z,15.77
2023-03-02T21:32:55.741Z,14.67
2023-03-02T21:34:27.465Z,15.20
2023-03-02T21:35:59.479Z,15.57
2023-03-02T21:37:31.305Z,14.23
2023-03-02T21:39:05.148Z,16.50
2023-03-02T21:40:42.833Z,16.00
2023-03-02T21:42:14.611Z,15.87
2023-03-02T21:43:47.607Z,14.90
2023-03-02T21:45:19.754Z,14.90
2023-03-02T21:46:51.465Z,14.50
2023-03-02T21:48:23.250Z,15.53
2023-03-02T21:49:55.057Z,15.50
2023-03-02T21:51:26.854Z,16.83
2023-03-02T21:52:59.326Z,19.83
2023-03-02T21:54:31.020Z,16.70
2023-03-02T21:56:02.856Z,15.63
2023-03-02T21:57:35.099Z,16.00
2023-03-02T21:59:06.840Z,14.87
2023-03-02T22:00:40.095Z,16.03
2023-03-02T22:02:12.748Z,14.57
2023-03-02T22:03:44.835Z,14.80
2023-03-02T22:05:17.940Z,16.90
2023-03-02T22:06:49.908Z,15.83
2023-03-02T22:08:21.767Z,15.80
2023-03-02T22:09:53.542Z,14.97
2023-03-02T22:11:32.588Z,15.23
2023-03-02T22:13:30.831Z,16.90
2023-03-02T22:15:06.523Z,15.87
2023-03-02T22:16:41.020Z,15.57
2023-03-02T22:18:17.713Z,16.83
2023-03-02T22:19:51.065Z,15.40
2023-03-02T22:21:36.453Z,15.60
2023-03-02T22:23:16.744Z,14.87
2023-03-02T22:24:50.298Z,16.10
2023-03-02T22:26:21.992Z,16.60
2023-03-02T22:27:53.980Z,15.93
2023-03-02T22:29:30.238Z,16.43
2023-03-02T22:31:02.730Z,15.70
2023-03-02T22:32:38.703Z,16.57
2023-03-02T22:34:15.238Z,15.93
2023-03-02T22:35:48.113Z,16.43
2023-03-02T22:37:32.759Z,17.60
2023-03-02T22:39:11.414Z,16.87
2023-03-02T22:40:43.545Z,17.60
2023-03-02T22:42:18.665Z,16.77
2023-03-02T22:43:52.784Z,16.40
2023-03-02T22:45:24.473Z,16.13
2023-03-02T22:46:56.794Z,17.10
2023-03-02T22:48:29.203Z,17.40
2023-03-02T22:50:19.133Z,17.10
2023-03-02T22:51:51.251Z,16.83
2023-03-02T22:53:27.460Z,16.67
2023-03-02T22:54:59.133Z,17.27
2023-03-02T22:56:30.887Z,18.97
2023-03-02T22:58:20.148Z,16.63
2023-03-02T22:59:51.842Z,17.07
2023-03-02T23:01:42.508Z,17.50
2023-03-02T23:03:18.508Z,17.20
2023-03-02T23:04:50.311Z,16.33
2023-03-02T23:06:31.288Z,16.60
2023-03-02T23:08:27.725Z,17.30
2023-03-02T23:09:59.432Z,18.00
2023-03-02T23:11:38.272Z,17.77
2023-03-02T23:13:13.689Z,18.47
2023-03-02T23:14:56.476Z,18.03
2023-03-02T23:16:33.972Z,19.00
2023-03-02T23:18:24.042Z,18.77
2023-03-02T23:19:56.093Z,18.47
2023-03-02T23:21:38.759Z,19.10
2023-03-02T23:23:10.438Z,18.93
2023-03-02T23:24:42.308Z,17.93
2023-03-02T23:26:14.222Z,20.40
2023-03-02T23:27:46.041Z,19.40
2023-03-02T23:29:18.783Z,20.70
2023-03-02T23:30:50.614Z,21.57
2023-03-02T23:32:22.428Z,21.30
2023-03-02T23:33:54.462Z,24.60
2023-03-02T23:35:26.884Z,25.30
2023-03-02T23:36:59.136Z,24.87
2023-03-02T23:38:30.871Z,24.57
2023-03-02T23:40:03.937Z,26.37
2023-03-02T23:41:36.887Z,28.57
2023-03-02T23:43:08.856Z,30.97
2023-03-02T23:44:40.572Z,31.13
2023-03-02T23:46:14.117Z,32.80
2023-03-02T23:47:46.127Z,35.40
2023-03-02T23:49:18.423Z,39.97
2023-03-02T23:50:50.191Z,40.87
2023-03-02T23:52:21.903Z,41.97
2023-03-02T23:53:54.111Z,42.33
2023-03-02T23:55:25.788Z,43.17
2023-03-02T23:56:57.453Z,44.20
2023-03-02T23:58:29.134Z,43.73
